Time;durP1;ratioP1;P1;durP2;ratioP2;P2;SDS_P1;SDS_P2;PMS_P1;PMS_P2;Temp;Humidity;BMP_temperature;BMP_pressure;BME280_temperature;BME280_humidity;BME280_pressure;Samples;Min_cycle;Max_cycle;Signal;HPM_P1;HPM_P2
2022/04/12 00:03:11;;;;;;;9.05;4.00;;;;;;;;;;10403573;28;20071;-75
2022/04/12 00:08:15;;;;;;;12.73;4.73;;;;;;;;;;10402066;28;20029;-75
2022/04/12 00:13:19;;;;;;;7.97;4.32;;;;;;;;;;10411681;28;20025;-75
2022/04/12 00:23:43;;;;;;;8.93;4.25;;;;;;;;;;10405812;28;20091;-74
2022/04/12 00:28:47;;;;;;;8.40;3.70;;;;;;;;;;10396608;28;20074;-73
2022/04/12 00:33:51;;;;;;;8.63;4.97;;;;;;;;;;10400440;28;20520;-75
2022/04/12 00:38:56;;;;;;;9.90;4.47;;;;;;;;;;10397265;28;20473;-74
2022/04/12 00:44:03;;;;;;;11.02;4.63;;;;;;;;;;10391036;28;20052;-74
2022/04/12 00:49:06;;;;;;;12.43;3.80;;;;;;;;;;10406885;28;20504;-74
2022/04/12 00:54:10;;;;;;;9.68;4.75;;;;;;;;;;10410556;28;20033;-73
2022/04/12 00:59:15;;;;;;;8.35;3.70;;;;;;;;;;10402306;28;20128;-73
2022/04/12 01:04:19;;;;;;;10.35;3.80;;;;;;;;;;10417464;28;20743;-74
2022/04/12 01:09:26;;;;;;;8.52;3.78;;;;;;;;;;10397256;28;20053;-75
2022/04/12 01:14:38;;;;;;;9.83;4.63;;;;;;;;;;10397605;28;20049;-74
2022/04/12 01:19:41;;;;;;;6.72;3.28;;;;;;;;;;10397545;28;20133;-74
2022/04/12 01:24:45;;;;;;;5.68;3.10;;;;;;;;;;10393150;28;20528;-74
2022/04/12 01:29:52;;;;;;;7.43;3.90;;;;;;;;;;10404479;28;20121;-74
2022/04/12 01:34:59;;;;;;;12.27;3.63;;;;;;;;;;10402493;28;20034;-75
2022/04/12 01:40:03;;;;;;;5.53;2.95;;;;;;;;;;10400732;28;20033;-75
2022/04/12 01:45:07;;;;;;;6.55;3.17;;;;;;;;;;10400698;28;20084;-75
2022/04/12 01:50:11;;;;;;;9.85;4.18;;;;;;;;;;10398298;28;20076;-73
2022/04/12 01:55:15;;;;;;;6.77;3.60;;;;;;;;;;10390310;28;20815;-75
2022/04/12 02:00:18;;;;;;;9.33;4.33;;;;;;;;;;10392102;28;20207;-74
2022/04/12 02:05:21;;;;;;;9.90;4.07;;;;;;;;;;10390759;28;20042;-74
2022/04/12 02:10:25;;;;;;;8.88;4.00;;;;;;;;;;10390746;28;20060;-75
2022/04/12 02:15:28;;;;;;;;;;;;;;;;;;10401044;28;20106;-73
2022/04/12 02:20:31;;;;;;;11.73;4.80;;;;;;;;;;10399494;28;19920;-74
2022/04/12 02:25:35;;;;;;;7.17;3.30;;;;;;;;;;10393543;28;20036;-74
2022/04/12 02:30:38;;;;;;;3.85;1.35;;;;;;;;;;10395729;28;20100;-74
2022/04/12 02:35:41;;;;;;;9.43;3.77;;;;;;;;;;10399358;28;20029;-75
2022/04/12 02:40:45;;;;;;;9.27;3.22;;;;;;;;;;10393206;28;20057;-74
2022/04/12 02:45:48;;;;;;;8.82;3.50;;;;;;;;;;10394199;28;20188;-74
2022/04/12 02:50:51;;;;;;;2.17;1.50;;;;;;;;;;10397017;28;20033;-74
2022/04/12 02:55:55;;;;;;;7.28;3.05;;;;;;;;;;10389231;28;20040;-74
2022/04/12 03:00:58;;;;;;;;;;;;;;;;;;10393065;28;20421;-74
2022/04/12 03:06:01;;;;;;;6.67;3.53;;;;;;;;;;10391070;28;19925;-75
2022/04/12 03:11:05;;;;;;;3.33;1.80;;;;;;;;;;10385782;28;20049;-75
2022/04/12 03:16:09;;;;;;;2.50;1.98;;;;;;;;;;10397467;28;20065;-74
2022/04/12 03:21:12;;;;;;;7.57;3.70;;;;;;;;;;10397051;28;20409;-74
2022/04/12 03:26:17;;;;;;;4.20;2.13;;;;;;;;;;10396029;28;20132;-72
2022/04/12 03:31:20;;;;;;;;;;;;;;;;;;10395497;28;20033;-73
2022/04/12 03:36:23;;;;;;;8.33;2.93;;;;;;;;;;10398605;28;19928;-75
2022/04/12 03:41:27;;;;;;;1.20;0.83;;;;;;;;;;10409510;28;20187;-75
2022/04/12 03:46:29;;;;;;;;;;;;;;;;;;10404292;28;20096;-75
2022/04/12 03:51:32;;;;;;;7.77;3.60;;;;;;;;;;10393852;28;20047;-75
2022/04/12 03:56:37;;;;;;;8.53;3.47;;;;;;;;;;10385695;28;20068;-74
2022/04/12 04:01:39;;;;;;;;;;;;;;;;;;10390181;28;20409;-73
2022/04/12 04:06:42;;;;;;;7.83;3.53;;;;;;;;;;10393491;28;19920;-75
2022/04/12 04:11:48;;;;;;;8.93;3.30;;;;;;;;;;10398712;28;20045;-75
2022/04/12 04:16:50;;;;;;;9.17;3.60;;;;;;;;;;10416732;28;20037;-75
2022/04/12 04:21:55;;;;;;;8.93;4.27;;;;;;;;;;10400695;28;20111;-74
2022/04/12 04:26:59;;;;;;;10.73;4.20;;;;;;;;;;10415208;28;20155;-73
2022/04/12 04:32:02;;;;;;;;;;;;;;;;;;10393367;28;20446;-77
2022/04/12 04:37:05;;;;;;;9.23;3.90;;;;;;;;;;10398253;28;19921;-74
2022/04/12 04:42:09;;;;;;;;;;;;;;;;;;10410052;22;21230;-70
2022/04/12 04:47:14;;;;;;;9.80;3.37;;;;;;;;;;10431076;28;19986;-71
2022/04/12 04:52:16;;;;;;;;;;;;;;;;;;10426830;28;20045;-71
2022/04/12 04:57:19;;;;;;;8.40;3.23;;;;;;;;;;10425959;28;19931;-71
2022/04/12 05:02:23;;;;;;;7.13;3.73;;;;;;;;;;10428166;28;20030;-70
2022/04/12 05:07:32;;;;;;;11.63;4.33;;;;;;;;;;10423633;28;20037;-71
2022/04/12 05:12:35;;;;;;;7.63;3.77;;;;;;;;;;10421098;28;20617;-70
2022/04/12 05:17:39;;;;;;;9.07;4.13;;;;;;;;;;10421837;28;20044;-70
2022/04/12 05:22:42;;;;;;;11.13;4.03;;;;;;;;;;10424922;28;20037;-71
2022/04/12 05:27:45;;;;;;;10.60;4.50;;;;;;;;;;10405960;28;20045;-70
2022/04/12 05:32:49;;;;;;;10.93;4.43;;;;;;;;;;10406218;28;20029;-71
2022/04/12 05:37:52;;;;;;;;;;;;;;;;;;10422887;28;20045;-69
2022/04/12 05:42:56;;;;;;;8.67;4.20;;;;;;;;;;10427290;28;19982;-70
2022/04/12 05:48:06;;;;;;;11.87;4.43;;;;;;;;;;10409280;28;20049;-69
2022/04/12 05:53:15;;;;;;;8.80;4.15;;;;;;;;;;10426680;28;20037;-70
2022/04/12 05:58:18;;;;;;;12.10;4.03;;;;;;;;;;10408890;28;20045;-71
2022/04/12 06:03:22;;;;;;;9.85;4.45;;;;;;;;;;10410965;28;20554;-70
2022/04/12 06:08:25;;;;;;;8.27;4.25;;;;;;;;;;10416321;28;20535;-70
2022/04/12 06:13:29;;;;;;;10.45;4.22;;;;;;;;;;10424492;28;20039;-70
2022/04/12 06:18:33;;;;;;;10.73;5.05;;;;;;;;;;10421407;28;20556;-70
2022/04/12 06:23:36;;;;;;;;;;;;;;;;;;10421285;28;20512;-70
2022/04/12 06:28:39;;;;;;;8.00;4.28;;;;;;;;;;10424134;28;20282;-71
2022/04/12 06:33:50;;;;;;;11.18;4.18;;;;;;;;;;10421937;28;20041;-71
2022/04/12 06:39:11;;;;;;;4.20;2.20;;;;;;;;;;10405395;28;20051;-70
2022/04/12 06:44:14;;;;;;;9.48;3.83;;;;;;;;;;10408408;28;20687;-71
2022/04/12 06:49:19;;;;;;;12.38;3.00;;;;;;;;;;10422819;28;20110;-71
2022/04/12 06:54:21;;;;;;;5.93;3.72;;;;;;;;;;10420569;28;20045;-71
2022/04/12 06:59:25;;;;;;;9.35;3.90;;;;;;;;;;10406339;28;20036;-71
2022/04/12 07:04:30;;;;;;;6.85;2.17;;;;;;;;;;10409776;28;20139;-71
2022/04/12 07:09:32;;;;;;;6.68;3.58;;;;;;;;;;10429449;28;20033;-71
2022/04/12 07:14:36;;;;;;;7.10;3.75;;;;;;;;;;10402906;28;20091;-72
2022/04/12 07:19:41;;;;;;;6.55;3.67;;;;;;;;;;10426758;28;20148;-71
2022/04/12 07:24:43;;;;;;;7.88;3.90;;;;;;;;;;10424699;28;20084;-70
2022/04/12 07:29:46;;;;;;;7.57;3.92;;;;;;;;;;10421289;28;20132;-71
2022/04/12 07:34:51;;;;;;;9.95;4.60;;;;;;;;;;10424461;28;20067;-71
2022/04/12 07:39:55;;;;;;;7.38;4.07;;;;;;;;;;10422965;28;20053;-71
2022/04/12 07:44:58;;;;;;;7.47;3.50;;;;;;;;;;10414943;28;20071;-71
2022/04/12 07:50:02;;;;;;;7.55;3.53;;;;;;;;;;10437266;28;20034;-71
2022/04/12 07:55:06;;;;;;;7.32;3.40;;;;;;;;;;10411508;28;20970;-74
2022/04/12 08:00:09;;;;;;;4.82;3.03;;;;;;;;;;10429210;28;20124;-72
2022/04/12 08:05:13;;;;;;;5.03;3.63;;;;;;;;;;10431010;28;20064;-73
2022/04/12 08:10:16;;;;;;;3.90;3.40;;;;;;;;;;10425939;28;20049;-73
2022/04/12 08:15:19;;;;;;;6.07;3.40;;;;;;;;;;10424019;28;20061;-71
2022/04/12 08:20:23;;;;;;;6.88;3.10;;;;;;;;;;10424058;28;20041;-72
2022/04/12 08:25:27;;;;;;;5.47;2.88;;;;;;;;;;10408996;28;20577;-71
2022/04/12 08:30:30;;;;;;;5.43;3.15;;;;;;;;;;10410956;28;20120;-71
2022/04/12 08:35:34;;;;;;;5.97;3.13;;;;;;;;;;10430363;28;20074;-73
2022/04/12 08:40:37;;;;;;;4.88;3.22;;;;;;;;;;10410636;28;20607;-71
2022/04/12 08:45:45;;;;;;;4.63;3.05;;;;;;;;;;10425802;28;20026;-73
2022/04/12 08:50:50;;;;;;;4.03;2.97;;;;;;;;;;10428077;28;20124;-72
2022/04/12 08:55:53;;;;;;;3.17;2.80;;;;;;;;;;10430110;28;20132;-73
2022/04/12 09:00:56;;;;;;;7.78;2.78;;;;;;;;;;10407473;28;20432;-72
2022/04/12 09:06:01;;;;;;;6.25;3.17;;;;;;;;;;10425194;28;20049;-72
2022/04/12 09:11:04;;;;;;;6.60;4.15;;;;;;;;;;10423154;28;20584;-72
2022/04/12 09:16:08;;;;;;;5.07;3.00;;;;;;;;;;10438141;28;20120;-72
2022/04/12 09:21:22;;;;;;;9.57;3.05;;;;;;;;;;10425729;28;20128;-71
2022/04/12 09:26:26;;;;;;;4.07;2.92;;;;;;;;;;10421388;28;20037;-74
2022/04/12 09:31:29;;;;;;;5.30;3.42;;;;;;;;;;10425158;28;20041;-72
2022/04/12 09:36:35;;;;;;;6.88;3.55;;;;;;;;;;10427519;28;20041;-72
2022/04/12 09:41:40;;;;;;;4.90;3.30;;;;;;;;;;10407088;28;20049;-72
2022/04/12 09:46:42;;;;;;;4.22;3.05;;;;;;;;;;10422720;28;20048;-73
2022/04/12 09:51:49;;;;;;;5.28;3.20;;;;;;;;;;10427279;28;20055;-73
2022/04/12 09:56:57;;;;;;;3.78;2.83;;;;;;;;;;10430381;28;20024;-73
2022/04/12 10:02:19;;;;;;;4.13;2.70;;;;;;;;;;10420309;28;20671;-73
2022/04/12 10:07:25;;;;;;;4.43;2.88;;;;;;;;;;10427547;28;20043;-73
2022/04/12 10:12:28;;;;;;;3.83;2.90;;;;;;;;;;10423489;28;20041;-72
2022/04/12 10:17:33;;;;;;;5.10;3.55;;;;;;;;;;10424686;28;20033;-73
2022/04/12 10:22:38;;;;;;;5.07;3.38;;;;;;;;;;10422480;28;20040;-72
2022/04/12 10:27:41;;;;;;;5.47;3.38;;;;;;;;;;10422323;28;20545;-72
2022/04/12 10:32:58;;;;;;;5.80;3.00;;;;;;;;;;10423763;28;20045;-73
2022/04/12 10:38:04;;;;;;;2.95;2.67;;;;;;;;;;10407541;28;20152;-72
2022/04/12 10:43:24;;;;;;;4.30;2.58;;;;;;;;;;10425209;28;20070;-73
2022/04/12 10:48:28;;;;;;;3.38;2.30;;;;;;;;;;10422071;28;20162;-74
2022/04/12 10:53:50;;;;;;;7.25;3.70;;;;;;;;;;10406639;28;20543;-72
2022/04/12 10:58:54;;;;;;;5.82;3.58;;;;;;;;;;10424105;28;20037;-72
2022/04/12 11:03:57;;;;;;;5.80;3.65;;;;;;;;;;10429850;28;20036;-72
2022/04/12 11:09:10;;;;;;;3.85;3.45;;;;;;;;;;10414219;28;20049;-73
2022/04/12 11:14:25;;;;;;;6.15;4.18;;;;;;;;;;10438460;28;20033;-72
2022/04/12 11:19:29;;;;;;;7.93;3.97;;;;;;;;;;10425393;28;20036;-72
2022/04/12 11:24:33;;;;;;;4.78;3.67;;;;;;;;;;10443397;28;20482;-73
2022/04/12 11:29:40;;;;;;;4.85;3.50;;;;;;;;;;10440354;28;20064;-75
2022/04/12 11:34:43;;;;;;;7.25;3.53;;;;;;;;;;10430231;28;20043;-74
2022/04/12 11:39:47;;;;;;;7.47;3.80;;;;;;;;;;10432836;28;20053;-72
2022/04/12 11:44:52;;;;;;;7.10;3.70;;;;;;;;;;10415563;28;20123;-72
2022/04/12 11:49:55;;;;;;;5.18;3.90;;;;;;;;;;10430301;28;20472;-73
2022/04/12 11:55:00;;;;;;;5.90;3.88;;;;;;;;;;10415409;28;20052;-72
2022/04/12 12:00:05;;;;;;;5.72;4.10;;;;;;;;;;10431113;28;20040;-73
2022/04/12 12:05:09;;;;;;;8.45;4.60;;;;;;;;;;10430550;28;20037;-73
2022/04/12 12:10:12;;;;;;;11.02;4.00;;;;;;;;;;10424976;28;20132;-73
2022/04/12 12:15:18;;;;;;;7.20;4.60;;;;;;;;;;10426576;28;20083;-69
2022/04/12 12:20:21;;;;;;;8.98;4.35;;;;;;;;;;10425472;28;20033;-72
2022/04/12 12:25:36;;;;;;;6.18;4.35;;;;;;;;;;10428747;28;20062;-73
2022/04/12 12:30:41;;;;;;;4.47;3.90;;;;;;;;;;10425075;28;20098;-72
2022/04/12 12:35:45;;;;;;;6.57;4.35;;;;;;;;;;10432459;28;20044;-72
2022/04/12 12:40:48;;;;;;;5.05;4.00;;;;;;;;;;10409690;28;20041;-72
2022/04/12 12:45:53;;;;;;;8.73;4.07;;;;;;;;;;10428443;28;20480;-74
2022/04/12 12:50:56;;;;;;;8.77;4.00;;;;;;;;;;10427894;28;20045;-73
2022/04/12 12:56:00;;;;;;;8.57;3.72;;;;;;;;;;10421538;28;20033;-72
2022/04/12 13:01:05;;;;;;;8.45;3.88;;;;;;;;;;10420483;28;20501;-72
2022/04/12 13:06:08;;;;;;;6.45;3.60;;;;;;;;;;10424408;28;20030;-72
2022/04/12 13:11:11;;;;;;;7.05;3.97;;;;;;;;;;10421922;28;20049;-72
2022/04/12 13:16:16;;;;;;;7.15;4.20;;;;;;;;;;10423924;28;20297;-72
2022/04/12 13:21:21;;;;;;;8.73;4.70;;;;;;;;;;10425149;28;20118;-72
2022/04/12 13:26:24;;;;;;;5.80;4.25;;;;;;;;;;10426629;28;20086;-72
2022/04/12 13:31:31;;;;;;;6.07;3.88;;;;;;;;;;10427959;28;20099;-72
2022/04/12 13:36:34;;;;;;;6.25;3.78;;;;;;;;;;10406641;28;20387;-73
2022/04/12 13:41:37;;;;;;;5.43;3.60;;;;;;;;;;10412166;28;20044;-71
2022/04/12 13:46:41;;;;;;;7.63;3.85;;;;;;;;;;10419368;28;20041;-73
2022/04/12 13:51:45;;;;;;;9.45;3.15;;;;;;;;;;10404745;28;20358;-72
2022/04/12 13:56:49;;;;;;;9.15;3.63;;;;;;;;;;10417562;28;20378;-72
2022/04/12 14:01:54;;;;;;;8.25;3.60;;;;;;;;;;10428976;28;20033;-73
2022/04/12 14:06:58;;;;;;;7.20;3.75;;;;;;;;;;10404609;28;20127;-72
2022/04/12 14:12:00;;;;;;;6.68;3.65;;;;;;;;;;10404056;28;20524;-73
2022/04/12 14:17:05;;;;;;;7.95;3.28;;;;;;;;;;10417569;28;20078;-71
2022/04/12 14:22:09;;;;;;;9.85;3.53;;;;;;;;;;10420623;28;20086;-72
2022/04/12 14:27:13;;;;;;;9.80;3.08;;;;;;;;;;10405680;28;20029;-72
2022/04/12 14:32:18;;;;;;;4.00;3.00;;;;;;;;;;10404455;28;20153;-71
2022/04/12 14:37:21;;;;;;;3.97;2.75;;;;;;;;;;10404899;28;20586;-71
2022/04/12 14:42:24;;;;;;;4.20;2.40;;;;;;;;;;10425264;28;20465;-73
2022/04/12 14:47:28;;;;;;;4.22;2.33;;;;;;;;;;10429012;28;20036;-71
2022/04/12 14:52:32;;;;;;;4.28;2.63;;;;;;;;;;10406136;28;20064;-73
2022/04/12 14:57:36;;;;;;;4.72;2.30;;;;;;;;;;10427721;28;20041;-73
2022/04/12 15:02:40;;;;;;;4.95;2.60;;;;;;;;;;10411191;28;20131;-72
2022/04/12 15:07:44;;;;;;;6.70;2.70;;;;;;;;;;10407189;28;20052;-73
2022/04/12 15:12:47;;;;;;;;;;;;;;;;;;10403708;28;20064;-70
2022/04/12 15:17:51;;;;;;;5.60;2.47;;;;;;;;;;10407289;28;19921;-72
2022/04/12 15:22:54;;;;;;;3.95;2.28;;;;;;;;;;10400926;28;20080;-72
2022/04/12 15:27:56;;;;;;;3.47;1.88;;;;;;;;;;10419029;28;20381;-71
2022/04/12 15:33:01;;;;;;;4.88;2.13;;;;;;;;;;10412535;28;20118;-73
2022/04/12 15:38:04;;;;;;;4.70;2.35;;;;;;;;;;10424846;28;20076;-72
2022/04/12 15:43:07;;;;;;;4.07;2.40;;;;;;;;;;10419382;28;20057;-73
2022/04/12 15:48:12;;;;;;;5.75;2.25;;;;;;;;;;10407733;28;20049;-72
2022/04/12 15:53:15;;;;;;;4.50;2.78;;;;;;;;;;10408044;28;20068;-72
2022/04/12 15:58:17;;;;;;;4.10;2.22;;;;;;;;;;10422668;28;20099;-71
2022/04/12 16:03:21;;;;;;;5.70;2.20;;;;;;;;;;10422926;28;20040;-72
2022/04/12 16:08:25;;;;;;;3.85;2.03;;;;;;;;;;10422696;28;20042;-71
2022/04/12 16:13:29;;;;;;;5.75;2.20;;;;;;;;;;10424443;28;20033;-73
2022/04/12 16:18:33;;;;;;;3.55;2.20;;;;;;;;;;10425215;28;20141;-72
2022/04/12 16:23:36;;;;;;;5.78;2.65;;;;;;;;;;10410403;28;20053;-72
2022/04/12 16:28:39;;;;;;;3.72;1.88;;;;;;;;;;10428288;28;20045;-71
2022/04/12 16:33:43;;;;;;;6.10;2.22;;;;;;;;;;10420297;28;20412;-71
2022/04/12 16:38:46;;;;;;;5.75;2.95;;;;;;;;;;10425838;28;20045;-71
2022/04/12 16:43:49;;;;;;;5.68;3.10;;;;;;;;;;10427667;28;20132;-71
2022/04/12 16:48:54;;;;;;;4.20;1.70;;;;;;;;;;10423760;28;20040;-71
2022/04/12 16:54:00;;;;;;;4.20;1.77;;;;;;;;;;10425410;28;20147;-71
2022/04/12 16:59:04;;;;;;;6.45;2.20;;;;;;;;;;10421664;28;20107;-70
2022/04/12 17:04:09;;;;;;;2.88;1.83;;;;;;;;;;10422967;28;20112;-71
2022/04/12 17:09:11;;;;;;;3.88;1.85;;;;;;;;;;10419175;28;20041;-72
2022/04/12 17:14:14;;;;;;;4.97;1.67;;;;;;;;;;10416602;28;20040;-71
2022/04/12 17:19:19;;;;;;;3.45;1.70;;;;;;;;;;10406782;28;20040;-73
2022/04/12 17:24:23;;;;;;;4.95;2.42;;;;;;;;;;10421313;28;20040;-71
2022/04/12 17:29:26;;;;;;;6.93;2.10;;;;;;;;;;10409955;28;20460;-71
2022/04/12 17:34:30;;;;;;;5.43;2.00;;;;;;;;;;10408936;28;20041;-72
2022/04/12 17:39:33;;;;;;;3.00;1.55;;;;;;;;;;10426533;28;20032;-71
2022/04/12 17:44:37;;;;;;;6.40;2.90;;;;;;;;;;10406904;28;20423;-70
2022/04/12 17:49:41;;;;;;;18.35;7.55;;;;;;;;;;10404661;28;20036;-70
2022/04/12 17:54:44;;;;;;;4.22;1.58;;;;;;;;;;10415503;28;20033;-72
2022/04/12 17:59:47;;;;;;;4.80;2.03;;;;;;;;;;10418998;28;20040;-72
2022/04/12 18:04:55;;;;;;;4.30;1.60;;;;;;;;;;10407674;28;20117;-70
2022/04/12 18:09:58;;;;;;;2.85;1.60;;;;;;;;;;10403617;28;20041;-71
2022/04/12 18:15:01;;;;;;;2.10;1.40;;;;;;;;;;10405325;28;20053;-72
2022/04/12 18:20:07;;;;;;;3.90;1.80;;;;;;;;;;10425461;28;20041;-71
2022/04/12 18:25:10;;;;;;;4.07;1.50;;;;;;;;;;10404443;28;20597;-70
2022/04/12 18:30:13;;;;;;;7.37;2.87;;;;;;;;;;10424712;28;20037;-70
2022/04/12 18:35:18;;;;;;;14.27;5.55;;;;;;;;;;10412386;28;20060;-70
2022/04/12 18:40:23;;;;;;;8.55;3.10;;;;;;;;;;10426200;28;20047;-73
2022/04/12 18:45:26;;;;;;;5.53;1.80;;;;;;;;;;10402779;28;20052;-71
2022/04/12 18:50:30;;;;;;;3.13;1.65;;;;;;;;;;10425836;28;20653;-72
2022/04/12 18:55:33;;;;;;;3.72;2.10;;;;;;;;;;10426421;28;20071;-71
2022/04/12 19:00:36;;;;;;;6.82;2.35;;;;;;;;;;10417827;28;20616;-71
2022/04/12 19:05:40;;;;;;;3.42;1.95;;;;;;;;;;10410035;28;20061;-71
2022/04/12 19:10:45;;;;;;;5.07;1.90;;;;;;;;;;10425021;28;20125;-69
2022/04/12 19:15:47;;;;;;;;;;;;;;;;;;10418497;28;20045;-70
2022/04/12 19:20:54;;;;;;;5.75;2.90;;;;;;;;;;10426064;28;20310;-69
2022/04/12 19:25:58;;;;;;;4.25;1.60;;;;;;;;;;10406386;28;20040;-69
2022/04/12 19:31:00;;;;;;;3.72;2.00;;;;;;;;;;10407324;28;20045;-69
2022/04/12 19:36:05;;;;;;;3.30;1.70;;;;;;;;;;10419935;28;20040;-71
2022/04/12 19:41:08;;;;;;;3.85;2.30;;;;;;;;;;10433659;28;20452;-70
2022/04/12 19:46:12;;;;;;;4.38;1.88;;;;;;;;;;10408753;28;20068;-70
2022/04/12 19:51:17;;;;;;;6.80;2.30;;;;;;;;;;10423710;28;20033;-71
2022/04/12 19:56:20;;;;;;;5.18;1.98;;;;;;;;;;10432640;28;20061;-70
2022/04/12 20:01:23;;;;;;;9.50;2.30;;;;;;;;;;10421975;28;20597;-69
2022/04/12 20:06:27;;;;;;;4.68;2.30;;;;;;;;;;10414400;28;20549;-71
2022/04/12 20:11:30;;;;;;;10.10;2.67;;;;;;;;;;10419826;28;20052;-71
2022/04/12 20:16:34;;;;;;;4.68;1.90;;;;;;;;;;10421715;28;20044;-70
2022/04/12 20:21:38;;;;;;;5.30;2.38;;;;;;;;;;10406234;28;20060;-71
2022/04/12 20:26:41;;;;;;;4.43;1.80;;;;;;;;;;10426427;28;20080;-71
2022/04/12 20:31:44;;;;;;;4.83;2.00;;;;;;;;;;10425001;28;20544;-70
2022/04/12 20:36:49;;;;;;;4.80;1.90;;;;;;;;;;10428651;28;20738;-71
2022/04/12 20:41:52;;;;;;;5.30;1.88;;;;;;;;;;10426102;28;20994;-71
2022/04/12 20:46:55;;;;;;;4.25;2.05;;;;;;;;;;10408513;28;20114;-71
2022/04/12 20:51:59;;;;;;;4.05;1.73;;;;;;;;;;10404116;28;20106;-72
2022/04/12 20:57:03;;;;;;;2.38;1.67;;;;;;;;;;10428345;28;20155;-71
2022/04/12 21:02:06;;;;;;;5.87;2.07;;;;;;;;;;10428856;28;20642;-71
2022/04/12 21:07:10;;;;;;;4.68;2.00;;;;;;;;;;10428478;28;20449;-68
2022/04/12 21:12:13;;;;;;;5.22;2.08;;;;;;;;;;10423157;28;20041;-69
2022/04/12 21:17:16;;;;;;;5.85;1.85;;;;;;;;;;10424034;28;20037;-70
2022/04/12 21:22:20;;;;;;;5.68;1.80;;;;;;;;;;10399591;28;20502;-69
2022/04/12 21:27:23;;;;;;;5.78;2.20;;;;;;;;;;10408218;28;20425;-70
2022/04/12 21:32:26;;;;;;;3.92;1.95;;;;;;;;;;10431140;28;20098;-70
2022/04/12 21:37:33;;;;;;;5.90;2.10;;;;;;;;;;10419934;28;20110;-69
2022/04/12 21:42:36;;;;;;;7.18;2.75;;;;;;;;;;10420881;28;20462;-69
2022/04/12 21:47:43;;;;;;;8.52;2.83;;;;;;;;;;10421037;28;20045;-71
2022/04/12 21:52:47;;;;;;;7.53;2.63;;;;;;;;;;10422068;28;20558;-70
2022/04/12 21:57:51;;;;;;;7.53;2.83;;;;;;;;;;10394785;28;20559;-70
2022/04/12 22:02:54;;;;;;;13.73;6.10;;;;;;;;;;10423317;28;20044;-69
2022/04/12 22:08:00;;;;;;;6.50;2.58;;;;;;;;;;10431070;28;20041;-69
2022/04/12 22:13:03;;;;;;;5.45;2.35;;;;;;;;;;10425924;28;20041;-70
2022/04/12 22:18:07;;;;;;;3.65;1.75;;;;;;;;;;10427795;28;20041;-70
2022/04/12 22:23:11;;;;;;;5.00;2.33;;;;;;;;;;10428362;28;20583;-71
2022/04/12 22:28:15;;;;;;;5.10;2.50;;;;;;;;;;10428560;28;20507;-73
2022/04/12 22:33:18;;;;;;;5.70;1.88;;;;;;;;;;10406080;28;20099;-70
2022/04/12 22:38:22;;;;;;;4.20;1.73;;;;;;;;;;10407685;28;20056;-70
2022/04/12 22:43:25;;;;;;;3.95;1.80;;;;;;;;;;10418832;28;20067;-70
2022/04/12 22:48:30;;;;;;;4.15;2.00;;;;;;;;;;10435781;28;20124;-70
2022/04/12 22:53:34;;;;;;;5.55;2.03;;;;;;;;;;10421434;28;20044;-70
2022/04/12 22:58:37;;;;;;;;;;;;;;;;;;10436340;28;20107;-71
2022/04/12 23:03:40;;;;;;;4.82;2.00;;;;;;;;;;10434155;28;19921;-70
2022/04/12 23:08:45;;;;;;;4.78;2.10;;;;;;;;;;10440408;28;20041;-69
2022/04/12 23:13:48;;;;;;;6.00;2.15;;;;;;;;;;10430981;28;20044;-69
2022/04/12 23:18:51;;;;;;;4.28;1.90;;;;;;;;;;10450671;28;20051;-68
2022/04/12 23:23:55;;;;;;;2.75;1.77;;;;;;;;;;10446298;28;20049;-69
2022/04/12 23:28:58;;;;;;;5.10;1.67;;;;;;;;;;10434786;28;20123;-69
2022/04/12 23:34:01;;;;;;;4.50;1.88;;;;;;;;;;10433737;28;20034;-70
2022/04/12 23:39:05;;;;;;;4.68;2.10;;;;;;;;;;10433945;28;20512;-69
2022/04/12 23:44:09;;;;;;;6.03;2.33;;;;;;;;;;10429556;28;20036;-69
2022/04/12 23:49:14;;;;;;;4.30;2.10;;;;;;;;;;10433141;28;20043;-69
2022/04/12 23:54:20;;;;;;;3.67;1.67;;;;;;;;;;10429577;28;20052;-71
2022/04/12 23:59:23;;;;;;;3.58;2.20;;;;;;;;;;10433200;28;20124;-70
